Archival Weather

Chicago O'Hare International

Chicago, Illinois (KORD)

Report from: Sunday, December 25, 2022 10:51 AM CST
Current time: Saturday, June 22, 2024 5:32 AM CDT

Current weather – Weather history – Daily summaries
Weather forecast

Temperature-12.8°C (9.0°F)
Wind chill-21.4°C (-6.6°F)
Dew point-20.0°C (-4.0°F)
Winds 11 kts (5.7 m/s, 12.7 mph) West (270°)
Wind gusts 19 kts (9.8 m/s, 21.9 mph)
Visibility10 mi. (16.1 km)
Clouds Few clouds 3,000 ft. (914 m)
Few clouds 25,000 ft. (7,620 m)
Altimeter30.05 in.Hg (1018 mB)
Relative humidity55 %
Density altitude-3,675 ft. (-1,120 m)
Sea-level pressure101.9 kPa (1019 mB, 30.09 in.Hg)
Remarks System requires maintenance
Automated weather observing station with precipitation discriminator
Flight conditions Visual Meteorological Conditions
Raw dataKORD 251651Z 27011G19KT 10SM FEW030 FEW250 M13/M20 A3005 RMK AO2 SLP191 T11281200 $
An error has occurred. This application may no longer respond until reloaded. Reload 🗙